Alexandra N — A8NR5 — position and weather

sailwx.info

Track history (hours):
 
Tides and Currents Weather Stations Pressure Air Temp Water Temp Dewpoint Dewpoint Depression Visibility Wind Speed Wind Dir Waves Ship Positions

Alexandra N

Last reported at 2015-Feb-20 23:04 UTC. Time now 2015-Feb-28 02:03 UTC.
Position N 36°05' W 005°08'.

Length 184 m; draft 7.7 m.

Type: Cargo ship. MMSI: 636091436.

Date/timePositionNaut miles runAvg speedWind from/ knotsBaromVisibWave heightAir tempDewpointWater temp
2015-Feb-20 23:04N 36°05' W 005°08'612.0
2015-Feb-20 22:33N 36°04' W 005°15'7 7.1
2015-Feb-20 21:34N 36°08' W 005°22'0 0.3
2015-Feb-20 20:29N 36°08' W 005°22'0 0.0
2015-Feb-20 19:32N 36°08' W 005°22'0 0.0
2015-Feb-20 18:29N 36°08' W 005°22'0 0.0
2015-Feb-20 17:32N 36°08' W 005°22'0 0.0
2015-Feb-20 16:32N 36°08' W 005°22'0 0.0
2015-Feb-20 15:32N 36°08' W 005°22'0 0.0
2015-Feb-20 14:33N 36°08' W 005°22'7 7.0
2015-Feb-20 13:33N 36°06' W 005°14'6 0.3
2015-Feb-19 16:24N 36°09' W 005°07'3 3.2
2015-Feb-19 15:32N 36°09' W 005°11'1 0.9
2015-Feb-19 14:33N 36°08' W 005°12'2 0.1
2015-Feb-17 19:27N 36°10' W 005°10'7 3.5
2015-Feb-17 17:33N 36°09' W 005°18'0 0.1
2015-Feb-17 16:33N 36°08' W 005°18'0 0.0
2015-Feb-17 15:30N 36°08' W 005°18'0 0.1
2015-Feb-17 14:33N 36°08' W 005°18'0 0.1
2015-Feb-17 13:33N 36°08' W 005°18'0 0.1
2015-Feb-17 12:30N 36°08' W 005°18'0 0.0
2015-Feb-17 11:33N 36°08' W 005°18'0 0.1
2015-Feb-17 08:18N 36°08' W 005°17'0 0.0
2015-Feb-17 06:33N 36°08' W 005°17'0 0.0
2015-Feb-17 05:33N 36°08' W 005°17'0 0.1
2015-Feb-17 04:33N 36°09' W 005°17'0 0.0
2015-Feb-17 03:33N 36°09' W 005°17'0 0.1
2015-Feb-17 02:30N 36°09' W 005°17'0 0.1
2015-Feb-17 01:30N 36°09' W 005°17'0 0.1
2015-Feb-17 00:33N 36°09' W 005°17'0 0.1
2015-Feb-16 23:33N 36°09' W 005°17'0 0.0
2015-Feb-16 22:33N 36°09' W 005°17'0 0.0
2015-Feb-16 21:33N 36°09' W 005°17'0 0.0
2015-Feb-16 20:33N 36°08' W 005°17'0 0.0
2015-Feb-16 19:33N 36°08' W 005°17'0 0.0
2015-Feb-16 18:33N 36°08' W 005°17'0 0.0
2015-Feb-16 17:27N 36°08' W 005°17'0 0.0
2015-Feb-16 16:33N 36°08' W 005°17'0 0.0
2015-Feb-16 15:30N 36°08' W 005°17'0 0.0
2015-Feb-16 14:30N 36°08' W 005°17'0 0.0
2015-Feb-16 13:24N 36°08' W 005°17'0 0.0
2015-Feb-16 12:18N 36°08' W 005°17'0 0.0
2015-Feb-16 11:33N 36°08' W 005°17'0 0.0
2015-Feb-16 10:33N 36°08' W 005°17'0 0.0
2015-Feb-16 08:14N 36°08' W 005°18'0 0.0
2015-Feb-16 07:29N 36°08' W 005°18'0 0.0
2015-Feb-16 06:11N 36°08' W 005°17'0 0.0
2015-Feb-16 04:17N 36°08' W 005°17'0 0.1
2015-Feb-16 03:32N 36°09' W 005°17'0 0.0
2015-Feb-16 02:32N 36°09' W 005°17'0 0.0
2015-Feb-16 01:20N 36°09' W 005°17'0 0.0
2015-Feb-16 00:17N 36°09' W 005°17'0 0.1
2015-Feb-15 23:32N 36°09' W 005°17'0 0.0
2015-Feb-15 22:32N 36°09' W 005°17'0 0.1
2015-Feb-15 21:32N 36°09' W 005°17'0 0.0
2015-Feb-15 19:29N 36°08' W 005°17'0 0.0
2015-Feb-15 18:29N 36°08' W 005°17'0 0.0
2015-Feb-15 17:26N 36°08' W 005°17'0 0.0
2015-Feb-15 16:32N 36°09' W 005°17'0 0.0
2015-Feb-15 15:32N 36°09' W 005°17'0 0.0
2015-Feb-15 14:32N 36°09' W 005°17'0 0.0
2015-Feb-15 13:20N 36°09' W 005°17'0 0.0
2015-Feb-15 12:32N 36°09' W 005°17'0 0.0
2015-Feb-15 11:32N 36°09' W 005°17'0 0.0
2015-Feb-15 10:32N 36°09' W 005°17'0 0.1
2015-Feb-15 09:29N 36°09' W 005°17'0 0.0
2015-Feb-15 08:32N 36°09' W 005°17'0 0.0
2015-Feb-15 07:32N 36°09' W 005°17'0 0.0
2015-Feb-15 06:32N 36°09' W 005°17'0 0.0
2015-Feb-15 05:32N 36°09' W 005°17'0 0.0
2015-Feb-15 04:29N 36°09' W 005°17'0 0.0
2015-Feb-15 03:32N 36°09' W 005°17'0 0.0
2015-Feb-15 02:32N 36°09' W 005°18'0 0.0
2015-Feb-15 01:32N 36°09' W 005°18'0 0.0
2015-Feb-15 00:32N 36°09' W 005°18'0 0.0
2015-Feb-14 23:32N 36°09' W 005°18'0 0.0
2015-Feb-14 22:32N 36°09' W 005°18'0 0.0
2015-Feb-14 21:29N 36°09' W 005°18'0 0.0
2015-Feb-14 20:31N 36°09' W 005°18'0 0.1
2015-Feb-14 19:31N 36°09' W 005°17'0 0.1
2015-Feb-14 18:31N 36°09' W 005°18'0 0.0
2015-Feb-14 17:31N 36°09' W 005°17'0 0.0
2015-Feb-14 16:28N 36°09' W 005°17'0 0.0
2015-Feb-14 15:25N 36°09' W 005°17'0 0.0
2015-Feb-14 14:28N 36°09' W 005°17'0 0.1
2015-Feb-14 13:31N 36°09' W 005°17'0 0.0
2015-Feb-14 12:31N 36°09' W 005°18'0 0.0
2015-Feb-14 11:28N 36°09' W 005°18'0 0.0
2015-Feb-14 10:31N 36°09' W 005°18'0 0.0
2015-Feb-14 09:28N 36°09' W 005°18'0 0.0
2015-Feb-14 08:31N 36°09' W 005°18'0 0.1
2015-Feb-14 07:25N 36°09' W 005°18'0 0.0
2015-Feb-14 06:25N 36°08' W 005°18'0 0.0
2015-Feb-14 05:22N 36°08' W 005°18'0 0.0
2015-Feb-14 04:22N 36°08' W 005°18'0 0.0
2015-Feb-14 03:07N 36°09' W 005°18'0 0.1
2015-Feb-14 02:28N 36°09' W 005°18'0 0.0
2015-Feb-14 01:28N 36°09' W 005°18'0 0.0
2015-Feb-14 00:31N 36°09' W 005°18'0 0.0
2015-Feb-13 23:31N 36°09' W 005°18'0 0.0
2015-Feb-13 22:31N 36°09' W 005°18'0 0.0
2015-Feb-13 21:31N 36°09' W 005°18'0 0.0
2015-Feb-13 20:31N 36°09' W 005°18'0 0.0
2015-Feb-13 19:31N 36°09' W 005°18'0 0.1
2015-Feb-13 18:31N 36°09' W 005°18'0 0.0
2015-Feb-13 17:31N 36°09' W 005°18'0 0.0
2015-Feb-13 16:31N 36°09' W 005°18'0 0.0
2015-Feb-13 15:31N 36°09' W 005°18'0 0.0
2015-Feb-13 14:31N 36°09' W 005°18'0 0.1
2015-Feb-13 13:31N 36°09' W 005°18'0 0.0
2015-Feb-13 12:31N 36°09' W 005°18'0 0.2
2015-Feb-13 11:25N 36°09' W 005°18'0 0.0
2015-Feb-13 10:25N 36°09' W 005°18'0 0.0
2015-Feb-13 09:22N 36°09' W 005°18'0 0.1
2015-Feb-13 08:34N 36°09' W 005°18'0 0.1
2015-Feb-13 07:34N 36°09' W 005°18'3 2.5
2015-Feb-13 06:33N 36°06' W 005°18'3 2.2
2015-Feb-13 05:23N 36°07' W 005°22'0 0.0
2015-Feb-13 00:05N 36°07' W 005°21'0 0.0
2015-Feb-12 23:11N 36°07' W 005°21'0 0.1
2015-Feb-12 22:26N 36°07' W 005°22'0 0.1
2015-Feb-12 21:29N 36°07' W 005°21'0 0.1
2015-Feb-12 20:23N 36°07' W 005°22'0 0.1
2015-Feb-12 19:26N 36°07' W 005°22'0 0.0
2015-Feb-12 18:26N 36°07' W 005°22'0 0.0
2015-Feb-12 17:32N 36°07' W 005°22'0 0.0
2015-Feb-12 16:29N 36°07' W 005°22'0 0.1
2015-Feb-12 15:31N 36°07' W 005°22'3 2.9
2015-Feb-12 14:31N 36°05' W 005°20'2 1.9
2015-Feb-12 13:31N 36°06' W 005°18'3 2.8
2015-Feb-12 12:32N 36°09' W 005°18'0 0.1
2015-Feb-12 11:32N 36°09' W 005°18'0 0.0
2015-Feb-12 10:32N 36°09' W 005°18'0 0.1
2015-Feb-12 09:32N 36°09' W 005°18'0 0.1
2015-Feb-12 08:32N 36°09' W 005°18'0 0.0
2015-Feb-12 07:29N 36°09' W 005°18'0 0.0
2015-Feb-12 06:32N 36°09' W 005°18'0 0.0
2015-Feb-12 05:29N 36°09' W 005°18'0 0.0
2015-Feb-12 04:29N 36°09' W 005°18'0 0.0
2015-Feb-12 03:26N 36°09' W 005°18'0 0.1
2015-Feb-12 02:32N 36°09' W 005°18'0 0.0
2015-Feb-12 01:32N 36°09' W 005°18'0 0.0
2015-Feb-12 00:32N 36°09' W 005°18'0 0.0
2015-Feb-11 23:32N 36°09' W 005°18'0 0.0
2015-Feb-11 22:32N 36°09' W 005°18'0 0.0
2015-Feb-11 21:32N 36°09' W 005°18'0 0.1
2015-Feb-11 20:32N 36°09' W 005°18'0 0.0
2015-Feb-11 19:32N 36°09' W 005°18'0 0.1
2015-Feb-11 18:32N 36°09' W 005°18'0 0.1
2015-Feb-11 17:32N 36°09' W 005°18'0 0.0
2015-Feb-11 16:32N 36°09' W 005°18'0 0.1
2015-Feb-11 15:33N 36°09' W 005°18'6 5.9
2015-Feb-11 14:31N 36°11' W 005°11'4 3.9
2015-Feb-11 13:26N 36°13' W 005°06'  
Track history (hours):
 
Tides and Currents Weather Stations Pressure Air Temp Water Temp Dewpoint Dewpoint Depression Visibility Wind Speed Wind Dir Waves Ship Positions

Alexandra N

Last reported at 2015-Feb-20 23:04 UTC. Time now 2015-Feb-28 02:03 UTC.
Position N 36°05' W 005°08'.

Length 184 m; draft 7.7 m.

Type: Cargo ship. MMSI: 636091436.

Date/timePositionNaut miles runAvg speedWind from/ knotsBaromVisibWave heightAir tempDewpointWater temp
2015-Feb-20 23:04N 36°05' W 005°08'612.0
2015-Feb-20 22:33N 36°04' W 005°15'7 7.1
2015-Feb-20 21:34N 36°08' W 005°22'0 0.3
2015-Feb-20 20:29N 36°08' W 005°22'0 0.0
2015-Feb-20 19:32N 36°08' W 005°22'0 0.0
2015-Feb-20 18:29N 36°08' W 005°22'0 0.0
2015-Feb-20 17:32N 36°08' W 005°22'0 0.0
2015-Feb-20 16:32N 36°08' W 005°22'0 0.0
2015-Feb-20 15:32N 36°08' W 005°22'0 0.0
2015-Feb-20 14:33N 36°08' W 005°22'7 7.0
2015-Feb-20 13:33N 36°06' W 005°14'6 0.3
2015-Feb-19 16:24N 36°09' W 005°07'3 3.2
2015-Feb-19 15:32N 36°09' W 005°11'1 0.9
2015-Feb-19 14:33N 36°08' W 005°12'2 0.1
2015-Feb-17 19:27N 36°10' W 005°10'7 3.5
2015-Feb-17 17:33N 36°09' W 005°18'0 0.1
2015-Feb-17 16:33N 36°08' W 005°18'0 0.0
2015-Feb-17 15:30N 36°08' W 005°18'0 0.1
2015-Feb-17 14:33N 36°08' W 005°18'0 0.1
2015-Feb-17 13:33N 36°08' W 005°18'0 0.1
2015-Feb-17 12:30N 36°08' W 005°18'0 0.0
2015-Feb-17 11:33N 36°08' W 005°18'0 0.1
2015-Feb-17 08:18N 36°08' W 005°17'0 0.0
2015-Feb-17 06:33N 36°08' W 005°17'0 0.0
2015-Feb-17 05:33N 36°08' W 005°17'0 0.1
2015-Feb-17 04:33N 36°09' W 005°17'0 0.0
2015-Feb-17 03:33N 36°09' W 005°17'0 0.1
2015-Feb-17 02:30N 36°09' W 005°17'0 0.1
2015-Feb-17 01:30N 36°09' W 005°17'0 0.1
2015-Feb-17 00:33N 36°09' W 005°17'0 0.1
2015-Feb-16 23:33N 36°09' W 005°17'0 0.0
2015-Feb-16 22:33N 36°09' W 005°17'0 0.0
2015-Feb-16 21:33N 36°09' W 005°17'0 0.0
2015-Feb-16 20:33N 36°08' W 005°17'0 0.0
2015-Feb-16 19:33N 36°08' W 005°17'0 0.0
2015-Feb-16 18:33N 36°08' W 005°17'0 0.0
2015-Feb-16 17:27N 36°08' W 005°17'0 0.0
2015-Feb-16 16:33N 36°08' W 005°17'0 0.0
2015-Feb-16 15:30N 36°08' W 005°17'0 0.0
2015-Feb-16 14:30N 36°08' W 005°17'0 0.0
2015-Feb-16 13:24N 36°08' W 005°17'0 0.0
2015-Feb-16 12:18N 36°08' W 005°17'0 0.0
2015-Feb-16 11:33N 36°08' W 005°17'0 0.0
2015-Feb-16 10:33N 36°08' W 005°17'0 0.0
2015-Feb-16 08:14N 36°08' W 005°18'0 0.0
2015-Feb-16 07:29N 36°08' W 005°18'0 0.0
2015-Feb-16 06:11N 36°08' W 005°17'0 0.0
2015-Feb-16 04:17N 36°08' W 005°17'0 0.1
2015-Feb-16 03:32N 36°09' W 005°17'0 0.0
2015-Feb-16 02:32N 36°09' W 005°17'0 0.0
2015-Feb-16 01:20N 36°09' W 005°17'0 0.0
2015-Feb-16 00:17N 36°09' W 005°17'0 0.1
2015-Feb-15 23:32N 36°09' W 005°17'0 0.0
2015-Feb-15 22:32N 36°09' W 005°17'0 0.1
2015-Feb-15 21:32N 36°09' W 005°17'0 0.0
2015-Feb-15 19:29N 36°08' W 005°17'0 0.0
2015-Feb-15 18:29N 36°08' W 005°17'0 0.0
2015-Feb-15 17:26N 36°08' W 005°17'0 0.0
2015-Feb-15 16:32N 36°09' W 005°17'0 0.0
2015-Feb-15 15:32N 36°09' W 005°17'0 0.0
2015-Feb-15 14:32N 36°09' W 005°17'0 0.0
2015-Feb-15 13:20N 36°09' W 005°17'0 0.0
2015-Feb-15 12:32N 36°09' W 005°17'0 0.0
2015-Feb-15 11:32N 36°09' W 005°17'0 0.0
2015-Feb-15 10:32N 36°09' W 005°17'0 0.1
2015-Feb-15 09:29N 36°09' W 005°17'0 0.0
2015-Feb-15 08:32N 36°09' W 005°17'0 0.0
2015-Feb-15 07:32N 36°09' W 005°17'0 0.0
2015-Feb-15 06:32N 36°09' W 005°17'0 0.0
2015-Feb-15 05:32N 36°09' W 005°17'0 0.0
2015-Feb-15 04:29N 36°09' W 005°17'0 0.0
2015-Feb-15 03:32N 36°09' W 005°17'0 0.0
2015-Feb-15 02:32N 36°09' W 005°18'0 0.0
2015-Feb-15 01:32N 36°09' W 005°18'0 0.0
2015-Feb-15 00:32N 36°09' W 005°18'0 0.0
2015-Feb-14 23:32N 36°09' W 005°18'0 0.0
2015-Feb-14 22:32N 36°09' W 005°18'0 0.0
2015-Feb-14 21:29N 36°09' W 005°18'0 0.0
2015-Feb-14 20:31N 36°09' W 005°18'0 0.1
2015-Feb-14 19:31N 36°09' W 005°17'0 0.1
2015-Feb-14 18:31N 36°09' W 005°18'0 0.0
2015-Feb-14 17:31N 36°09' W 005°17'0 0.0
2015-Feb-14 16:28N 36°09' W 005°17'0 0.0
2015-Feb-14 15:25N 36°09' W 005°17'0 0.0
2015-Feb-14 14:28N 36°09' W 005°17'0 0.1
2015-Feb-14 13:31N 36°09' W 005°17'0 0.0
2015-Feb-14 12:31N 36°09' W 005°18'0 0.0
2015-Feb-14 11:28N 36°09' W 005°18'0 0.0
2015-Feb-14 10:31N 36°09' W 005°18'0 0.0
2015-Feb-14 09:28N 36°09' W 005°18'0 0.0
2015-Feb-14 08:31N 36°09' W 005°18'0 0.1
2015-Feb-14 07:25N 36°09' W 005°18'0 0.0
2015-Feb-14 06:25N 36°08' W 005°18'0 0.0
2015-Feb-14 05:22N 36°08' W 005°18'0 0.0
2015-Feb-14 04:22N 36°08' W 005°18'0 0.0
2015-Feb-14 03:07N 36°09' W 005°18'0 0.1
2015-Feb-14 02:28N 36°09' W 005°18'0 0.0
2015-Feb-14 01:28N 36°09' W 005°18'0 0.0
2015-Feb-14 00:31N 36°09' W 005°18'0 0.0
2015-Feb-13 23:31N 36°09' W 005°18'0 0.0
2015-Feb-13 22:31N 36°09' W 005°18'0 0.0
2015-Feb-13 21:31N 36°09' W 005°18'0 0.0
2015-Feb-13 20:31N 36°09' W 005°18'0 0.0
2015-Feb-13 19:31N 36°09' W 005°18'0 0.1
2015-Feb-13 18:31N 36°09' W 005°18'0 0.0
2015-Feb-13 17:31N 36°09' W 005°18'0 0.0
2015-Feb-13 16:31N 36°09' W 005°18'0 0.0
2015-Feb-13 15:31N 36°09' W 005°18'0 0.0
2015-Feb-13 14:31N 36°09' W 005°18'0 0.1
2015-Feb-13 13:31N 36°09' W 005°18'0 0.0
2015-Feb-13 12:31N 36°09' W 005°18'0 0.2
2015-Feb-13 11:25N 36°09' W 005°18'0 0.0
2015-Feb-13 10:25N 36°09' W 005°18'0 0.0
2015-Feb-13 09:22N 36°09' W 005°18'0 0.1
2015-Feb-13 08:34N 36°09' W 005°18'0 0.1
2015-Feb-13 07:34N 36°09' W 005°18'3 2.5
2015-Feb-13 06:33N 36°06' W 005°18'3 2.2
2015-Feb-13 05:23N 36°07' W 005°22'0 0.0
2015-Feb-13 00:05N 36°07' W 005°21'0 0.0
2015-Feb-12 23:11N 36°07' W 005°21'0 0.1
2015-Feb-12 22:26N 36°07' W 005°22'0 0.1
2015-Feb-12 21:29N 36°07' W 005°21'0 0.1
2015-Feb-12 20:23N 36°07' W 005°22'0 0.1
2015-Feb-12 19:26N 36°07' W 005°22'0 0.0
2015-Feb-12 18:26N 36°07' W 005°22'0 0.0
2015-Feb-12 17:32N 36°07' W 005°22'0 0.0
2015-Feb-12 16:29N 36°07' W 005°22'0 0.1
2015-Feb-12 15:31N 36°07' W 005°22'3 2.9
2015-Feb-12 14:31N 36°05' W 005°20'2 1.9
2015-Feb-12 13:31N 36°06' W 005°18'3 2.8
2015-Feb-12 12:32N 36°09' W 005°18'0 0.1
2015-Feb-12 11:32N 36°09' W 005°18'0 0.0
2015-Feb-12 10:32N 36°09' W 005°18'0 0.1
2015-Feb-12 09:32N 36°09' W 005°18'0 0.1
2015-Feb-12 08:32N 36°09' W 005°18'0 0.0
2015-Feb-12 07:29N 36°09' W 005°18'0 0.0
2015-Feb-12 06:32N 36°09' W 005°18'0 0.0
2015-Feb-12 05:29N 36°09' W 005°18'0 0.0
2015-Feb-12 04:29N 36°09' W 005°18'0 0.0
2015-Feb-12 03:26N 36°09' W 005°18'0 0.1
2015-Feb-12 02:32N 36°09' W 005°18'0 0.0
2015-Feb-12 01:32N 36°09' W 005°18'0 0.0
2015-Feb-12 00:32N 36°09' W 005°18'0 0.0
2015-Feb-11 23:32N 36°09' W 005°18'0 0.0
2015-Feb-11 22:32N 36°09' W 005°18'0 0.0
2015-Feb-11 21:32N 36°09' W 005°18'0 0.1
2015-Feb-11 20:32N 36°09' W 005°18'0 0.0
2015-Feb-11 19:32N 36°09' W 005°18'0 0.1
2015-Feb-11 18:32N 36°09' W 005°18'0 0.1
2015-Feb-11 17:32N 36°09' W 005°18'0 0.0
2015-Feb-11 16:32N 36°09' W 005°18'0 0.1
2015-Feb-11 15:33N 36°09' W 005°18'6 5.9
2015-Feb-11 14:31N 36°11' W 005°11'4 3.9
2015-Feb-11 13:26N 36°13' W 005°06'  

Dump ship's entire track history